createdAt,value
2024-02-05T00:00:11.385Z,7.00
2024-02-05T00:02:59.549Z,6.00
2024-02-05T00:05:28.157Z,6.25
2024-02-05T00:07:59.122Z,5.00
2024-02-05T00:10:28.196Z,6.00
2024-02-05T00:12:56.508Z,7.00
2024-02-05T00:15:24.600Z,5.00
2024-02-05T00:17:52.955Z,5.00
2024-02-05T00:20:21.000Z,6.00
2024-02-05T00:22:49.077Z,5.00
2024-02-05T00:25:17.253Z,5.25
2024-02-05T00:27:45.463Z,5.00
2024-02-05T00:30:14.323Z,6.00
2024-02-05T00:32:42.595Z,5.00
2024-02-05T00:35:10.858Z,5.00
2024-02-05T00:37:39.560Z,7.00
2024-02-05T00:40:08.846Z,5.33
2024-02-05T00:42:37.300Z,6.00
2024-02-05T00:45:06.466Z,6.00
2024-02-05T00:47:34.632Z,5.00
2024-02-05T00:50:03.057Z,6.00
2024-02-05T00:52:31.329Z,6.33
2024-02-05T00:54:59.579Z,5.00
2024-02-05T00:57:28.058Z,5.00
2024-02-05T00:59:56.403Z,4.33
2024-02-05T01:02:24.753Z,6.00
2024-02-05T01:04:53.262Z,5.00
2024-02-05T01:07:21.742Z,5.33
2024-02-05T01:09:49.973Z,5.00
2024-02-05T01:12:18.166Z,4.00
2024-02-05T01:14:46.357Z,4.00
2024-02-05T01:17:14.492Z,5.00
2024-02-05T01:19:42.641Z,4.00
2024-02-05T01:22:10.774Z,5.00
2024-02-05T01:24:39.146Z,2.25
2024-02-05T01:27:07.305Z,5.33
2024-02-05T01:29:35.423Z,4.33
2024-02-05T01:32:03.591Z,4.00
2024-02-05T01:34:32.323Z,4.00
2024-02-05T01:37:00.793Z,5.00
2024-02-05T01:39:28.914Z,4.75
2024-02-05T01:41:57.101Z,5.00
2024-02-05T01:44:25.344Z,2.67
2024-02-05T01:46:53.556Z,4.67
2024-02-05T01:49:21.700Z,5.00
2024-02-05T01:51:51.714Z,4.00
2024-02-05T01:54:20.237Z,3.50
2024-02-05T01:56:48.488Z,5.00
2024-02-05T01:59:17.339Z,5.00
2024-02-05T02:01:45.701Z,4.00
2024-02-05T02:04:14.029Z,4.00
2024-02-05T02:06:42.250Z,4.00
2024-02-05T02:09:15.128Z,4.00
2024-02-05T02:11:43.427Z,3.00
2024-02-05T02:14:11.574Z,2.75
2024-02-05T02:16:39.739Z,4.00
2024-02-05T02:19:23.334Z,3.00
2024-02-05T02:26:34.248Z,3.00
2024-02-05T02:29:02.505Z,2.00
2024-02-05T02:31:30.766Z,2.00
2024-02-05T02:34:02.870Z,3.00
2024-02-05T02:36:36.819Z,3.00
2024-02-05T02:39:12.466Z,3.00
2024-02-05T02:41:41.402Z,3.00
2024-02-05T02:44:09.555Z,3.00
2024-02-05T02:46:37.835Z,3.00
2024-02-05T02:49:06.139Z,2.00
2024-02-05T02:51:34.353Z,3.67
2024-02-05T02:54:04.120Z,2.00
2024-02-05T02:56:32.442Z,3.00
2024-02-05T02:59:00.494Z,3.00
2024-02-05T03:01:29.178Z,2.00
2024-02-05T03:03:57.583Z,3.00
2024-02-05T03:06:25.885Z,3.00
2024-02-05T03:08:53.937Z,2.00
2024-02-05T03:11:22.119Z,3.00
2024-02-05T03:13:50.323Z,2.00
2024-02-05T03:16:18.400Z,2.00
2024-02-05T03:18:47.651Z,1.67
2024-02-05T03:21:16.469Z,2.00
2024-02-05T03:23:45.401Z,2.00
2024-02-05T03:26:14.891Z,1.00
2024-02-05T03:28:43.114Z,2.67
2024-02-05T03:31:11.372Z,2.00
2024-02-05T03:33:39.696Z,1.00
2024-02-05T03:36:07.905Z,2.00
2024-02-05T03:38:36.079Z,2.00
2024-02-05T03:41:04.395Z,2.00
2024-02-05T03:43:32.600Z,1.00
2024-02-05T03:46:00.826Z,1.00
2024-02-05T03:48:29.103Z,2.00
2024-02-05T03:50:57.336Z,1.00
2024-02-05T03:53:25.451Z,1.33
2024-02-05T03:55:53.673Z,1.00
2024-02-05T03:58:21.960Z,2.00
2024-02-05T04:00:50.302Z,1.00
2024-02-05T04:03:18.432Z,1.00
2024-02-05T04:05:46.851Z,1.00
2024-02-05T04:08:15.615Z,2.00
2024-02-05T04:10:43.664Z,1.00
2024-02-05T04:13:11.738Z,1.00
2024-02-05T04:15:39.974Z,2.00
2024-02-05T04:18:08.203Z,0.00
2024-02-05T04:20:36.454Z,2.00
2024-02-05T04:23:06.860Z,1.00
2024-02-05T04:25:35.260Z,1.00
2024-02-05T04:28:03.754Z,1.00
2024-02-05T04:30:38.141Z,1.00
2024-02-05T04:33:08.740Z,1.25
2024-02-05T04:35:37.343Z,1.00
2024-02-05T04:38:05.411Z,1.00
2024-02-05T04:40:33.536Z,0.75
2024-02-05T04:43:01.665Z,1.00
2024-02-05T04:45:29.755Z,1.00
2024-02-05T04:47:57.809Z,1.00
2024-02-05T04:50:26.245Z,1.00
2024-02-05T04:52:54.689Z,1.00
2024-02-05T04:55:23.003Z,1.00
2024-02-05T04:57:52.235Z,1.00
2024-02-05T05:00:23.481Z,1.75
2024-02-05T05:02:51.725Z,1.00
2024-02-05T05:05:20.201Z,1.00
2024-02-05T05:07:49.159Z,1.00
2024-02-05T05:10:17.588Z,1.00
2024-02-05T05:12:45.760Z,1.00
2024-02-05T05:15:17.505Z,1.00
2024-02-05T05:17:46.171Z,0.00
2024-02-05T05:20:14.582Z,1.00
2024-02-05T05:22:42.781Z,1.00
2024-02-05T05:25:10.972Z,1.00
2024-02-05T05:27:39.257Z,1.00
2024-02-05T05:30:08.565Z,1.00
2024-02-05T05:32:36.951Z,1.00
2024-02-05T05:35:08.577Z,1.00
2024-02-05T05:37:38.690Z,1.00
2024-02-05T05:40:07.726Z,1.00
2024-02-05T05:42:35.919Z,1.00
2024-02-05T05:45:05.336Z,1.00
2024-02-05T05:47:34.712Z,1.00
2024-02-05T05:50:03.492Z,1.67
2024-02-05T05:52:33.195Z,2.00
2024-02-05T05:55:01.640Z,2.00
2024-02-05T05:57:29.923Z,2.00
2024-02-05T05:59:58.276Z,1.00
2024-02-05T06:02:26.435Z,2.00
2024-02-05T06:04:54.676Z,2.00
2024-02-05T06:07:22.939Z,2.00
2024-02-05T06:09:51.124Z,1.00
2024-02-05T06:12:19.244Z,1.00
2024-02-05T06:14:47.368Z,1.00
2024-02-05T06:17:15.564Z,2.00
2024-02-05T06:19:43.780Z,2.00
2024-02-05T06:22:13.157Z,2.00
2024-02-05T06:24:41.235Z,2.00
2024-02-05T06:27:10.474Z,1.00
2024-02-05T06:29:38.894Z,1.00
2024-02-05T06:32:07.898Z,1.25
2024-02-05T06:34:36.196Z,1.00
2024-02-05T06:37:04.619Z,2.00
2024-02-05T06:39:32.768Z,2.00
2024-02-05T06:42:01.350Z,2.00
2024-02-05T06:44:29.550Z,1.00
2024-02-05T06:46:57.581Z,2.00
2024-02-05T06:49:25.761Z,3.00
2024-02-05T06:51:53.923Z,2.00
2024-02-05T06:54:22.159Z,3.00
2024-02-05T06:56:51.260Z,2.00
2024-02-05T06:59:19.300Z,2.00
2024-02-05T07:01:47.623Z,3.00
2024-02-05T07:04:15.875Z,2.75
2024-02-05T07:06:44.224Z,2.25
2024-02-05T07:09:13.535Z,2.67
2024-02-05T07:11:41.750Z,3.00
2024-02-05T07:14:09.940Z,2.33
2024-02-05T07:16:38.167Z,3.00
2024-02-05T07:19:06.505Z,1.25
2024-02-05T07:21:35.501Z,2.00
2024-02-05T07:24:03.867Z,2.00
2024-02-05T07:26:35.425Z,2.00
2024-02-05T07:29:03.653Z,3.00
2024-02-05T07:31:31.973Z,2.00
2024-02-05T07:34:00.217Z,2.00
2024-02-05T07:36:30.493Z,1.75
2024-02-05T07:38:59.744Z,1.00
2024-02-05T07:41:27.909Z,1.00
2024-02-05T07:43:55.936Z,2.00
2024-02-05T07:46:24.010Z,2.00
2024-02-05T07:48:52.613Z,1.50
2024-02-05T07:51:20.727Z,2.00
2024-02-05T07:53:50.585Z,2.00
2024-02-05T07:56:18.764Z,1.75
2024-02-05T07:58:47.097Z,1.00
2024-02-05T08:01:15.457Z,2.00
2024-02-05T08:03:43.988Z,2.00
2024-02-05T08:06:19.241Z,2.00
2024-02-05T08:08:47.463Z,2.00
2024-02-05T08:11:17.294Z,1.75
2024-02-05T08:13:45.636Z,2.00
2024-02-05T08:16:13.799Z,1.00
2024-02-05T08:18:41.933Z,2.00
2024-02-05T08:21:10.212Z,2.00
2024-02-05T08:23:39.454Z,2.00
2024-02-05T08:26:10.428Z,2.00
2024-02-05T08:28:39.943Z,1.00
2024-02-05T08:31:09.098Z,2.00
2024-02-05T08:33:37.407Z,2.00
2024-02-05T08:36:05.954Z,1.50
2024-02-05T08:38:34.128Z,1.00
2024-02-05T08:41:02.287Z,2.00
2024-02-05T08:43:30.613Z,1.00
2024-02-05T08:45:58.823Z,1.00
2024-02-05T08:48:27.014Z,2.00
2024-02-05T08:50:55.333Z,1.00
2024-02-05T08:53:23.501Z,1.00
2024-02-05T08:55:51.712Z,1.00
2024-02-05T08:58:19.869Z,2.00
2024-02-05T09:00:50.026Z,1.00
2024-02-05T09:03:18.411Z,1.00
2024-02-05T09:05:48.793Z,2.00
2024-02-05T09:08:17.244Z,2.00
2024-02-05T09:10:45.612Z,1.00
2024-02-05T09:13:14.966Z,1.00
2024-02-05T09:15:44.000Z,1.00
2024-02-05T09:18:12.396Z,1.00
2024-02-05T09:20:43.246Z,1.75
2024-02-05T09:23:11.437Z,1.00
2024-02-05T09:25:39.613Z,1.00
2024-02-05T09:28:09.562Z,1.00
2024-02-05T09:30:41.314Z,1.00
2024-02-05T09:33:09.922Z,1.00
2024-02-05T09:35:38.254Z,1.00
2024-02-05T09:38:08.394Z,1.00
2024-02-05T09:40:37.812Z,1.00
2024-02-05T09:43:06.498Z,1.00
2024-02-05T09:45:34.842Z,1.00
2024-02-05T09:48:03.087Z,1.00
2024-02-05T09:50:31.392Z,1.00
2024-02-05T09:52:59.572Z,1.00
2024-02-05T09:55:29.184Z,1.00
2024-02-05T09:57:57.476Z,2.00
2024-02-05T10:00:25.569Z,0.00
2024-02-05T10:02:53.887Z,0.00
2024-02-05T10:05:22.268Z,1.00
2024-02-05T10:07:50.800Z,0.00
2024-02-05T10:10:19.393Z,0.00
2024-02-05T10:12:48.576Z,1.00
2024-02-05T10:15:16.674Z,0.00
2024-02-05T10:17:44.965Z,1.00
2024-02-05T10:20:14.415Z,0.50
2024-02-05T10:22:49.074Z,1.00
2024-02-05T10:25:17.740Z,1.00
2024-02-05T10:27:46.242Z,0.00
2024-02-05T10:30:17.674Z,0.00
2024-02-05T10:32:46.269Z,1.00
2024-02-05T10:35:17.442Z,0.00
2024-02-05T10:37:45.626Z,1.00
2024-02-05T10:40:14.275Z,1.00
2024-02-05T10:42:46.247Z,0.00
2024-02-05T10:45:15.016Z,1.00
2024-02-05T10:47:44.460Z,0.00
2024-02-05T10:50:15.277Z,1.00
2024-02-05T10:52:43.717Z,1.00
2024-02-05T10:55:12.337Z,0.00
2024-02-05T10:57:40.793Z,0.00
2024-02-05T11:00:28.965Z,0.00
2024-02-05T11:03:02.204Z,1.00
2024-02-05T11:05:30.374Z,0.50
2024-02-05T11:08:06.654Z,0.00
2024-02-05T11:10:36.795Z,0.00
2024-02-05T11:13:06.179Z,1.00
2024-02-05T11:15:36.280Z,0.00
2024-02-05T11:18:09.522Z,0.00
2024-02-05T11:20:37.701Z,1.00
2024-02-05T11:23:05.842Z,0.00
2024-02-05T11:25:34.130Z,0.00
2024-02-05T11:28:02.872Z,0.00
2024-02-05T11:30:31.659Z,0.00
2024-02-05T11:32:59.807Z,0.50
2024-02-05T11:35:33.590Z,0.00
2024-02-05T11:38:09.437Z,0.00
2024-02-05T11:40:40.444Z,0.00
2024-02-05T11:43:08.874Z,1.00
2024-02-05T11:45:37.317Z,1.00
2024-02-05T11:48:07.093Z,0.00
2024-02-05T11:50:36.439Z,0.00
2024-02-05T11:53:04.789Z,0.25
2024-02-05T11:55:33.970Z,0.00
2024-02-05T11:58:02.315Z,0.00
2024-02-05T12:00:30.587Z,0.00
2024-02-05T12:02:58.754Z,0.00
2024-02-05T12:05:27.870Z,0.00
2024-02-05T12:07:56.402Z,0.00
2024-02-05T12:10:24.752Z,0.00
2024-02-05T12:12:53.094Z,0.00
2024-02-05T12:15:30.820Z,0.00
2024-02-05T12:18:02.754Z,0.00
2024-02-05T12:20:31.368Z,0.00
2024-02-05T12:23:01.482Z,0.00
2024-02-05T12:25:38.175Z,0.00
2024-02-05T12:28:13.955Z,0.00
2024-02-05T12:30:42.457Z,1.00
2024-02-05T12:33:14.967Z,0.00
2024-02-05T12:35:43.202Z,0.00
2024-02-05T12:38:11.262Z,0.00
2024-02-05T12:40:39.568Z,0.00
2024-02-05T12:43:07.642Z,0.00
2024-02-05T12:45:35.667Z,0.00
2024-02-05T12:48:06.553Z,0.00
2024-02-05T12:50:35.513Z,0.00
2024-02-05T12:53:03.744Z,0.00
2024-02-05T12:55:33.870Z,0.00
2024-02-05T12:58:02.196Z,0.00
2024-02-05T13:00:30.535Z,0.00
2024-02-05T13:03:05.308Z,0.00
2024-02-05T13:05:33.675Z,0.00
2024-02-05T13:08:02.172Z,0.00
2024-02-05T13:10:30.614Z,0.00
2024-02-05T13:12:58.934Z,0.00
2024-02-05T13:15:27.476Z,0.00
2024-02-05T13:17:56.917Z,0.00
2024-02-05T13:20:25.188Z,1.00
2024-02-05T13:22:53.378Z,0.00
2024-02-05T13:25:23.761Z,0.00
2024-02-05T13:27:52.185Z,0.00
2024-02-05T13:30:20.330Z,0.00
2024-02-05T13:32:48.876Z,0.00
2024-02-05T13:35:17.087Z,0.00
2024-02-05T13:37:46.079Z,0.00
2024-02-05T13:40:16.982Z,0.00
2024-02-05T13:42:49.235Z,0.00
2024-02-05T13:45:17.576Z,1.00
2024-02-05T13:47:46.523Z,0.00
2024-02-05T13:50:14.841Z,0.00
2024-02-05T13:52:44.445Z,0.00
2024-02-05T13:55:14.251Z,0.00
2024-02-05T13:57:42.844Z,0.00
2024-02-05T14:00:12.271Z,0.00
2024-02-05T14:02:43.196Z,0.00
2024-02-05T14:05:12.676Z,0.00
2024-02-05T14:07:41.504Z,0.00
2024-02-05T14:10:10.363Z,0.00
2024-02-05T14:12:38.671Z,0.00
2024-02-05T14:15:07.380Z,0.00
2024-02-05T14:17:35.699Z,0.00
2024-02-05T14:20:05.793Z,0.00
2024-02-05T14:22:34.554Z,0.00
2024-02-05T14:25:03.017Z,0.00
2024-02-05T14:27:31.380Z,0.00
2024-02-05T14:29:59.545Z,0.00
2024-02-05T14:32:27.697Z,0.00
2024-02-05T14:34:56.020Z,0.00
2024-02-05T14:37:24.257Z,0.00
2024-02-05T14:39:52.351Z,0.00
2024-02-05T14:42:20.688Z,0.00
2024-02-05T14:44:48.755Z,0.00
2024-02-05T14:47:16.950Z,0.00
2024-02-05T14:49:45.278Z,0.00
2024-02-05T14:52:13.551Z,0.00
2024-02-05T14:54:41.889Z,0.00
2024-02-05T14:57:10.902Z,0.00
2024-02-05T14:59:39.092Z,0.00
2024-02-05T15:02:07.360Z,0.00
2024-02-05T15:04:35.731Z,0.00
2024-02-05T15:07:04.192Z,0.00
2024-02-05T15:09:32.553Z,0.00
2024-02-05T15:12:00.695Z,0.00
2024-02-05T15:14:28.870Z,0.00
2024-02-05T15:16:57.446Z,0.00
2024-02-05T15:19:25.883Z,0.00
2024-02-05T15:21:54.104Z,0.00
2024-02-05T15:24:22.247Z,0.00
2024-02-05T15:26:50.482Z,0.00
2024-02-05T15:29:20.057Z,0.00
2024-02-05T15:31:48.403Z,0.00
2024-02-05T15:34:16.875Z,0.00
2024-02-05T15:36:45.172Z,0.00
2024-02-05T15:39:13.250Z,0.00
2024-02-05T15:41:41.826Z,0.00
2024-02-05T15:44:10.167Z,0.00
2024-02-05T15:46:38.557Z,0.00
2024-02-05T15:49:07.080Z,0.00
2024-02-05T15:51:35.402Z,0.00
2024-02-05T15:54:04.640Z,0.00
2024-02-05T15:56:39.791Z,0.00
2024-02-05T15:59:11.189Z,0.00
2024-02-05T16:01:46.037Z,0.00
2024-02-05T16:04:14.380Z,0.00
2024-02-05T16:06:42.609Z,0.00
2024-02-05T16:09:12.006Z,0.00
2024-02-05T16:11:40.265Z,0.00
2024-02-05T16:14:11.909Z,0.00
2024-02-05T16:16:40.840Z,0.00
2024-02-05T16:19:15.677Z,0.00
2024-02-05T16:21:49.576Z,0.00
2024-02-05T16:24:18.021Z,0.00
2024-02-05T16:26:46.490Z,0.00
2024-02-05T16:29:14.586Z,0.00
2024-02-05T16:31:42.778Z,0.00
2024-02-05T16:34:11.803Z,0.00
2024-02-05T16:36:41.390Z,0.00
2024-02-05T16:39:09.620Z,0.00
2024-02-05T16:41:37.858Z,0.00
2024-02-05T16:44:06.102Z,0.00
2024-02-05T16:46:36.136Z,0.00
2024-02-05T16:49:05.804Z,0.00
2024-02-05T16:51:34.330Z,0.00
2024-02-05T16:54:03.992Z,0.00
2024-02-05T16:56:32.226Z,0.00
2024-02-05T16:59:00.355Z,0.00
2024-02-05T17:01:28.758Z,0.00
2024-02-05T17:03:57.365Z,0.00
2024-02-05T17:06:25.601Z,0.00
2024-02-05T17:08:53.665Z,0.00
2024-02-05T17:11:21.797Z,0.00
2024-02-05T17:13:49.928Z,0.00
2024-02-05T17:16:18.089Z,0.00
2024-02-05T17:18:46.740Z,0.00
2024-02-05T17:21:17.382Z,0.00
2024-02-05T17:23:45.667Z,0.00
2024-02-05T17:26:17.927Z,0.00
2024-02-05T17:28:46.958Z,0.00
2024-02-05T17:31:15.285Z,0.00
2024-02-05T17:33:43.839Z,0.75
2024-02-05T17:36:11.962Z,1.00
2024-02-05T17:38:40.324Z,0.00
2024-02-05T17:41:08.820Z,1.00
2024-02-05T17:43:37.179Z,1.00
2024-02-05T17:46:05.568Z,1.00
2024-02-05T17:48:36.567Z,1.00
2024-02-05T17:51:04.979Z,1.00
2024-02-05T17:53:33.278Z,2.00
2024-02-05T17:56:01.726Z,1.00
2024-02-05T17:58:30.116Z,1.00
2024-02-05T18:01:02.556Z,1.00
2024-02-05T18:03:31.270Z,2.00
2024-02-05T18:06:00.562Z,1.00
2024-02-05T18:08:29.050Z,2.00
2024-02-05T18:10:57.394Z,2.25
2024-02-05T18:13:25.592Z,3.50
2024-02-05T18:15:54.509Z,3.00
2024-02-05T18:18:24.964Z,2.00
2024-02-05T18:20:53.353Z,2.00
2024-02-05T18:23:22.027Z,1.25
2024-02-05T18:25:51.432Z,3.00
2024-02-05T18:28:20.114Z,2.00
2024-02-05T18:30:48.327Z,2.50
2024-02-05T18:33:16.538Z,3.00
2024-02-05T18:35:46.573Z,3.00
2024-02-05T18:38:15.193Z,2.25
2024-02-05T18:40:43.626Z,4.00
2024-02-05T18:43:11.922Z,2.00
2024-02-05T18:55:19.106Z,3.00
2024-02-05T18:57:47.380Z,4.00
2024-02-05T19:00:15.794Z,4.00
2024-02-05T19:02:44.018Z,3.33
2024-02-05T19:05:12.472Z,4.00
2024-02-05T19:07:40.793Z,4.00
2024-02-05T19:10:09.526Z,4.00
2024-02-05T19:12:39.122Z,3.00
2024-02-05T19:15:07.457Z,4.00
2024-02-05T19:17:35.494Z,4.00
2024-02-05T19:20:03.834Z,4.00
2024-02-05T19:22:33.865Z,3.00
2024-02-05T19:25:02.293Z,4.00
2024-02-05T19:27:30.524Z,4.00
2024-02-05T19:29:58.565Z,5.00
2024-02-05T19:32:26.630Z,4.00
2024-02-05T19:34:56.572Z,4.75
2024-02-05T19:37:26.480Z,5.00
2024-02-05T19:39:55.214Z,5.00
2024-02-05T19:42:24.058Z,5.00
2024-02-05T19:44:52.224Z,4.67
2024-02-05T19:47:20.315Z,4.33
2024-02-05T19:49:48.571Z,5.00
2024-02-05T19:52:17.197Z,5.50
2024-02-05T19:54:45.438Z,6.00
2024-02-05T19:57:13.524Z,6.00
2024-02-05T19:59:41.638Z,6.00
2024-02-05T20:02:10.099Z,6.75
2024-02-05T20:04:38.468Z,6.00
2024-02-05T20:07:10.538Z,4.00
2024-02-05T20:09:38.943Z,6.00
2024-02-05T20:12:10.189Z,5.00
2024-02-05T20:14:42.085Z,5.67
2024-02-05T20:17:10.366Z,5.33
2024-02-05T20:19:41.844Z,7.00
2024-02-05T20:22:10.504Z,5.00
2024-02-05T20:24:38.545Z,6.00
2024-02-05T20:27:06.613Z,6.00
2024-02-05T20:29:34.702Z,6.00
2024-02-05T20:32:03.069Z,6.00
2024-02-05T20:34:31.635Z,7.00
2024-02-05T20:37:00.106Z,5.00
2024-02-05T20:39:28.282Z,6.00
2024-02-05T20:41:56.489Z,6.25
2024-02-05T20:44:24.561Z,7.50
2024-02-05T20:46:53.742Z,6.00
2024-02-05T20:49:22.037Z,6.00
2024-02-05T20:51:50.305Z,7.00
2024-02-05T20:54:18.409Z,5.00
2024-02-05T20:56:46.592Z,7.00
2024-02-05T20:59:14.831Z,6.00
2024-02-05T21:01:43.065Z,7.00
2024-02-05T21:04:11.442Z,7.00
2024-02-05T21:06:39.920Z,7.00
2024-02-05T21:09:07.999Z,6.00
2024-02-05T21:11:36.660Z,5.00
2024-02-05T21:14:06.219Z,6.00
2024-02-05T21:16:34.708Z,6.00
2024-02-05T21:19:03.408Z,1.67
2024-02-05T21:21:31.509Z,8.00
2024-02-05T21:23:59.673Z,7.00
2024-02-05T21:26:29.220Z,6.00
2024-02-05T21:28:58.165Z,8.00
2024-02-05T21:31:26.555Z,6.00
2024-02-05T21:33:54.964Z,7.00
2024-02-05T21:36:23.899Z,7.00
2024-02-05T21:38:52.080Z,7.00
2024-02-05T21:41:20.268Z,7.00
2024-02-05T21:43:48.448Z,6.00
2024-02-05T21:46:16.578Z,9.00
2024-02-05T21:48:45.502Z,8.00
2024-02-05T21:51:14.136Z,7.00
2024-02-05T21:53:42.528Z,6.00
2024-02-05T21:56:10.785Z,6.67
2024-02-05T21:58:38.938Z,7.00
2024-02-05T22:01:07.344Z,8.00
2024-02-05T22:03:36.010Z,7.00
2024-02-05T22:06:04.612Z,7.00
2024-02-05T22:08:32.833Z,7.00
2024-02-05T22:11:01.239Z,6.00
2024-02-05T22:13:29.667Z,7.00
2024-02-05T22:15:58.020Z,5.33
2024-02-05T22:18:26.318Z,8.00
2024-02-05T22:20:54.412Z,7.00
2024-02-05T22:23:22.642Z,7.00
2024-02-05T22:25:50.712Z,7.50
2024-02-05T22:28:18.760Z,9.00
2024-02-05T22:30:46.786Z,7.00
2024-02-05T22:33:17.647Z,5.00
2024-02-05T22:35:46.201Z,9.33
2024-02-05T22:38:14.605Z,8.33
2024-02-05T22:40:42.836Z,9.33
2024-02-05T22:43:13.387Z,9.33
2024-02-05T22:45:42.928Z,8.33
2024-02-05T22:48:11.241Z,8.00
2024-02-05T22:50:39.339Z,7.00
2024-02-05T22:53:08.130Z,9.00
2024-02-05T22:55:36.395Z,5.00
2024-02-05T22:58:04.804Z,9.00
2024-02-05T23:00:33.734Z,7.00
2024-02-05T23:03:03.930Z,6.67
2024-02-05T23:05:32.517Z,9.00
2024-02-05T23:08:00.945Z,7.00
2024-02-05T23:10:29.178Z,8.00
2024-02-05T23:12:57.269Z,8.67
2024-02-05T23:15:25.346Z,10.00
2024-02-05T23:17:53.321Z,8.00
2024-02-05T23:20:21.310Z,9.00
2024-02-05T23:22:49.628Z,9.00
2024-02-05T23:25:18.571Z,8.00
2024-02-05T23:27:47.360Z,9.00
2024-02-05T23:30:16.525Z,4.00
2024-02-05T23:32:44.969Z,8.00
2024-02-05T23:35:13.640Z,9.25
2024-02-05T23:37:41.677Z,8.50
2024-02-05T23:40:10.331Z,8.00
2024-02-05T23:42:39.639Z,7.00
2024-02-05T23:45:08.070Z,8.33
2024-02-05T23:47:36.067Z,8.00
2024-02-05T23:50:04.432Z,9.00
2024-02-05T23:52:32.715Z,8.00
2024-02-05T23:55:01.248Z,8.00
2024-02-05T23:57:29.402Z,7.00
2024-02-05T23:59:57.333Z,8.00
